Time;durP1;ratioP1;P1;durP2;ratioP2;P2;SDS_P1;SDS_P2;PMS_P1;PMS_P2;Temp;Humidity;BMP_temperature;BMP_pressure;BME280_temperature;BME280_humidity;BME280_pressure;Samples;Min_cycle;Max_cycle;Signal;HPM_P1;HPM_P2
2021/11/21 00:02:30;;;;;;;;;;;9.30;99.90;;;;;;8427603;28;19924;-72
2021/11/21 00:06:31;;;;;;;;;;;9.30;99.90;;;;;;8427092;28;19958;-72
2021/11/21 00:10:34;;;;;;;;;;;9.30;99.90;;;;;;8426258;28;20321;-71
2021/11/21 00:14:35;;;;;;;;;;;9.30;99.90;;;;;;8431051;28;20368;-72
2021/11/21 00:18:37;;;;;;;;;;;9.30;99.90;;;;;;8435226;28;19928;-71
2021/11/21 00:22:38;;;;;;;;;;;9.30;99.90;;;;;;8425635;28;20287;-71
2021/11/21 00:26:40;;;;;;;;;;;9.30;99.90;;;;;;8433567;28;20386;-72
2021/11/21 00:30:42;;;;;;;;;;;9.30;99.90;;;;;;8438712;28;19927;-71
2021/11/21 00:34:44;;;;;;;;;;;9.30;99.90;;;;;;8429053;28;20375;-72
2021/11/21 00:38:45;;;;;;;;;;;9.30;99.90;;;;;;8459207;27;19920;-72
2021/11/21 00:42:48;;;;;;;;;;;9.30;99.90;;;;;;8432591;28;19939;-72
2021/11/21 00:46:50;;;;;;;;;;;9.30;99.90;;;;;;8429672;28;19935;-72
2021/11/21 00:50:54;;;;;;;;;;;9.30;99.90;;;;;;8425128;28;19928;-71
2021/11/21 00:55:13;;;;;;;;;;;9.30;99.90;;;;;;8429101;28;19968;-72
2021/11/21 00:59:19;;;;;;;;;;;9.30;99.90;;;;;;8423443;28;20394;-74
2021/11/21 01:03:22;;;;;;;;;;;9.30;99.90;;;;;;8427624;28;19928;-74
2021/11/21 01:07:24;;;;;;;;;;;9.30;99.90;;;;;;8437795;28;19986;-74
2021/11/21 01:11:26;;;;;;;;;;;9.30;99.90;;;;;;8438200;28;19920;-74
2021/11/21 01:15:27;;;;;;;;;;;9.30;99.90;;;;;;8421355;28;20309;-74
2021/11/21 01:19:29;;;;;;;;;;;9.30;99.90;;;;;;8433122;28;19959;-74
2021/11/21 01:23:31;;;;;;;;;;;9.30;99.90;;;;;;8427953;28;19924;-74
2021/11/21 01:27:33;;;;;;;;;;;9.30;99.90;;;;;;8437094;28;19950;-74
2021/11/21 01:31:34;;;;;;;;;;;9.30;99.90;;;;;;8425735;28;19931;-74
2021/11/21 01:35:36;;;;;;;;;;;9.30;99.90;;;;;;8432634;28;19926;-74
2021/11/21 01:39:38;;;;;;;;;;;9.20;99.90;;;;;;8421793;28;19920;-74
2021/11/21 01:43:40;;;;;;;;;;;9.20;99.90;;;;;;8423750;28;19925;-74
2021/11/21 01:47:43;;;;;;;;;;;9.20;99.90;;;;;;8428001;28;19931;-74
2021/11/21 01:51:49;;;;;;;;;;;9.20;99.90;;;;;;8422598;28;19935;-74
2021/11/21 01:55:51;;;;;;;;;;;9.20;99.90;;;;;;8416282;28;19928;-74
2021/11/21 01:59:57;;;;;;;;;;;9.20;99.90;;;;;;8418373;28;19927;-74
2021/11/21 02:03:59;;;;;;;;;;;9.20;99.90;;;;;;8421616;28;19943;-74
2021/11/21 02:08:00;;;;;;;;;;;9.20;99.90;;;;;;8428761;28;20295;-74
2021/11/21 02:12:02;;;;;;;;;;;9.20;99.90;;;;;;8426224;28;19997;-74
2021/11/21 02:16:04;;;;;;;;;;;9.20;99.90;;;;;;8426760;28;19924;-73
2021/11/21 02:20:08;;;;;;;;;;;9.20;99.90;;;;;;8427623;28;19920;-74
2021/11/21 02:24:10;;;;;;;;;;;9.20;99.90;;;;;;8429727;28;20303;-74
2021/11/21 02:28:12;;;;;;;;;;;9.10;99.90;;;;;;8421826;28;20291;-72
2021/11/21 02:32:13;;;;;;;;;;;9.10;99.90;;;;;;8431977;28;20283;-71
2021/11/21 02:36:15;;;;;;;;;;;9.20;99.90;;;;;;8427049;28;19943;-72
2021/11/21 02:40:17;;;;;;;;;;;9.10;99.90;;;;;;8427264;28;19927;-72
2021/11/21 02:44:19;;;;;;;;;;;9.10;99.90;;;;;;8419352;28;19928;-73
2021/11/21 02:48:22;;;;;;;;;;;9.10;99.90;;;;;;8421365;28;19943;-72
2021/11/21 02:52:24;;;;;;;;;;;9.10;99.90;;;;;;8420557;28;19920;-72
2021/11/21 02:56:27;;;;;;;;;;;9.10;99.90;;;;;;8422733;28;19924;-72
2021/11/21 03:00:29;;;;;;;;;;;9.10;99.90;;;;;;8421177;28;19920;-72
2021/11/21 03:04:30;;;;;;;;;;;9.10;99.90;;;;;;8432757;28;19927;-72
2021/11/21 03:08:33;;;;;;;;;;;9.10;99.90;;;;;;8423115;28;19930;-72
2021/11/21 03:12:35;;;;;;;;;;;9.10;99.90;;;;;;8418524;28;20330;-72
2021/11/21 03:16:37;;;;;;;;;;;9.10;99.90;;;;;;8427470;28;19920;-71
2021/11/21 03:20:38;;;;;;;;;;;9.10;99.90;;;;;;8428640;28;19938;-71
2021/11/21 03:24:40;;;;;;;;;;;9.10;99.90;;;;;;8418761;28;19931;-72
2021/11/21 03:28:42;;;;;;;;;;;9.10;99.90;;;;;;8426588;28;19924;-72
2021/11/21 03:32:44;;;;;;;;;;;9.10;99.90;;;;;;8425804;28;19927;-72
2021/11/21 03:36:46;;;;;;;;;;;9.10;99.90;;;;;;8463005;27;19951;-72
2021/11/21 03:40:48;;;;;;;;;;;9.10;99.90;;;;;;8451887;27;19952;-72
2021/11/21 03:44:49;;;;;;;;;;;9.10;99.90;;;;;;8425050;28;19920;-71
2021/11/21 03:48:51;;;;;;;;;;;9.20;99.90;;;;;;8417708;28;19928;-72
2021/11/21 03:52:53;;;;;;;;;;;9.20;99.90;;;;;;8418329;28;20000;-72
2021/11/21 03:56:55;;;;;;;;;;;9.20;99.90;;;;;;8428615;28;19928;-72
2021/11/21 04:00:58;;;;;;;;;;;9.20;99.90;;;;;;8425921;28;20308;-72
2021/11/21 04:04:59;;;;;;;;;;;9.20;99.90;;;;;;8433816;28;19923;-71
2021/11/21 04:09:01;;;;;;;;;;;9.20;99.90;;;;;;8427117;28;20394;-71
2021/11/21 04:13:04;;;;;;;;;;;9.20;99.90;;;;;;8428664;28;19919;-72
2021/11/21 04:17:06;;;;;;;;;;;9.30;99.90;;;;;;8432055;28;19925;-72
2021/11/21 04:21:07;;;;;;;;;;;9.30;99.90;;;;;;8427837;28;19927;-72
2021/11/21 04:25:10;;;;;;;;;;;9.30;99.90;;;;;;8427315;28;20377;-72
2021/11/21 04:29:12;;;;;;;;;;;9.40;99.90;;;;;;8433499;28;19920;-72
2021/11/21 04:33:14;;;;;;;;;;;9.40;99.90;;;;;;8441316;28;19978;-71
2021/11/21 04:37:16;;;;;;;;;;;9.40;99.90;;;;;;8426917;28;19920;-72
2021/11/21 04:41:18;;;;;;;;;;;9.40;99.90;;;;;;8427317;28;19942;-72
2021/11/21 04:45:19;;;;;;;;;;;9.40;99.90;;;;;;8426578;28;19976;-71
2021/11/21 04:49:21;;;;;;;;;;;9.40;99.90;;;;;;8425870;28;19996;-72
2021/11/21 04:53:23;;;;;;;;;;;9.50;99.90;;;;;;8429321;28;19920;-72
2021/11/21 04:57:24;;;;;;;;;;;9.50;99.90;;;;;;8417619;28;19950;-72
2021/11/21 05:01:26;;;;;;;;;;;9.50;99.90;;;;;;8420511;28;19928;-71
2021/11/21 05:05:28;;;;;;;;;;;9.50;99.90;;;;;;8417769;28;19920;-72
2021/11/21 05:09:30;;;;;;;;;;;9.50;99.90;;;;;;8419247;28;19927;-72
2021/11/21 05:13:31;;;;;;;;;;;9.50;99.90;;;;;;8436883;28;19928;-72
2021/11/21 05:17:33;;;;;;;;;;;9.50;99.90;;;;;;8419765;28;19924;-72
2021/11/21 05:21:35;;;;;;;;;;;9.50;99.90;;;;;;8429906;28;19927;-72
2021/11/21 05:25:36;;;;;;;;;;;9.50;99.90;;;;;;8441517;27;19924;-72
2021/11/21 05:29:38;;;;;;;;;;;9.60;99.90;;;;;;8426026;28;20023;-72
2021/11/21 05:33:39;;;;;;;;;;;9.50;99.90;;;;;;8427044;28;19927;-72
2021/11/21 05:37:41;;;;;;;;;;;9.50;99.90;;;;;;8427391;28;19931;-72
2021/11/21 05:41:43;;;;;;;;;;;9.50;99.90;;;;;;8426523;28;19941;-72
2021/11/21 05:45:45;;;;;;;;;;;9.50;99.90;;;;;;8419253;28;19934;-72
2021/11/21 05:49:47;;;;;;;;;;;9.50;99.90;;;;;;8418821;28;19920;-72
2021/11/21 05:53:48;;;;;;;;;;;9.50;99.90;;;;;;8420481;28;19924;-72
2021/11/21 05:57:50;;;;;;;;;;;9.50;99.90;;;;;;8429676;27;20625;-72
2021/11/21 06:01:52;;;;;;;;;;;9.50;99.90;;;;;;8425186;28;19928;-72
2021/11/21 06:05:53;;;;;;;;;;;9.50;99.90;;;;;;8422099;28;19927;-72
2021/11/21 06:09:55;;;;;;;;;;;9.50;99.90;;;;;;8431724;28;19924;-72
2021/11/21 06:13:57;;;;;;;;;;;9.50;99.90;;;;;;8412105;28;19927;-72
2021/11/21 06:17:58;;;;;;;;;;;9.50;99.90;;;;;;8429280;28;19974;-72
2021/11/21 06:22:00;;;;;;;;;;;9.50;99.90;;;;;;8423400;28;19935;-72
2021/11/21 06:26:03;;;;;;;;;;;9.50;99.90;;;;;;8430207;28;19932;-72
2021/11/21 06:30:05;;;;;;;;;;;9.50;99.90;;;;;;8418041;28;19928;-72
2021/11/21 06:34:07;;;;;;;;;;;9.50;99.90;;;;;;8409520;28;19943;-72
2021/11/21 06:38:09;;;;;;;;;;;9.50;99.90;;;;;;8418516;28;20286;-72
2021/11/21 06:42:11;;;;;;;;;;;9.40;99.90;;;;;;8418444;28;20527;-72
2021/11/21 06:46:15;;;;;;;;;;;9.40;99.90;;;;;;8422180;28;20464;-72
2021/11/21 06:50:17;;;;;;;;;;;9.40;99.90;;;;;;8420552;28;19924;-72
2021/11/21 06:54:19;;;;;;;;;;;9.40;99.90;;;;;;8414451;28;19928;-72
2021/11/21 06:58:20;;;;;;;;;;;9.40;99.90;;;;;;8415911;28;20216;-71
2021/11/21 07:02:22;;;;;;;;;;;9.40;99.90;;;;;;8410695;28;19924;-71
2021/11/21 07:06:36;;;;;;;;;;;9.30;99.90;;;;;;8411400;28;20290;-72
2021/11/21 07:10:37;;;;;;;;;;;9.30;99.90;;;;;;8419750;28;20348;-72
2021/11/21 07:14:39;;;;;;;;;;;9.30;99.90;;;;;;8422178;28;19977;-72
2021/11/21 07:18:41;;;;;;;;;;;9.30;99.90;;;;;;8422011;28;19928;-71
2021/11/21 07:22:43;;;;;;;;;;;9.30;99.90;;;;;;8419731;28;20064;-72
2021/11/21 07:26:45;;;;;;;;;;;9.30;99.90;;;;;;8424155;28;20363;-72
2021/11/21 07:30:47;;;;;;;;;;;9.20;99.90;;;;;;8430410;28;19927;-72
2021/11/21 07:34:48;;;;;;;;;;;9.20;99.90;;;;;;8425766;28;20229;-72
2021/11/21 07:38:50;;;;;;;;;;;9.20;99.90;;;;;;8456059;27;19927;-72
2021/11/21 07:42:52;;;;;;;;;;;9.20;99.90;;;;;;8416184;28;19929;-72
2021/11/21 07:46:53;;;;;;;;;;;9.20;99.90;;;;;;8442743;28;20398;-72
2021/11/21 07:50:56;;;;;;;;;;;9.10;99.90;;;;;;8425942;28;20367;-71
2021/11/21 07:54:58;;;;;;;;;;;9.20;99.90;;;;;;8428006;28;19924;-72
2021/11/21 07:58:59;;;;;;;;;;;9.10;99.90;;;;;;8421696;28;19927;-72
2021/11/21 08:03:01;;;;;;;;;;;9.00;99.90;;;;;;8427951;28;19935;-72
2021/11/21 08:07:03;;;;;;;;;;;9.00;99.90;;;;;;8399527;28;20395;-72
2021/11/21 08:11:05;;;;;;;;;;;9.00;99.90;;;;;;8419552;28;19920;-72
2021/11/21 08:15:06;;;;;;;;;;;9.00;99.90;;;;;;8430366;28;19931;-72
2021/11/21 08:19:10;;;;;;;;;;;8.90;99.90;;;;;;8427178;28;20052;-71
2021/11/21 08:23:12;;;;;;;;;;;8.90;99.90;;;;;;8416952;28;19920;-72
2021/11/21 08:27:14;;;;;;;;;;;8.90;99.90;;;;;;8418955;28;20156;-72
2021/11/21 08:31:16;;;;;;;;;;;9.00;99.90;;;;;;8418619;28;19920;-72
2021/11/21 08:35:18;;;;;;;;;;;9.00;99.90;;;;;;8424113;28;19932;-72
2021/11/21 08:39:22;;;;;;;;;;;9.00;99.90;;;;;;8430391;28;19924;-72
2021/11/21 08:43:24;;;;;;;;;;;9.00;99.90;;;;;;8420647;28;19920;-72
2021/11/21 08:47:26;;;;;;;;;;;9.00;99.90;;;;;;8422099;28;19976;-72
2021/11/21 08:51:27;;;;;;;;;;;9.00;99.90;;;;;;8423322;28;20238;-72
2021/11/21 08:55:29;;;;;;;;;;;8.90;99.90;;;;;;8421492;28;19920;-71
2021/11/21 08:59:31;;;;;;;;;;;8.90;99.90;;;;;;8419518;28;19920;-71
2021/11/21 09:03:33;;;;;;;;;;;8.90;99.90;;;;;;8422581;28;19924;-72
2021/11/21 09:07:36;;;;;;;;;;;8.80;99.90;;;;;;8426447;28;19919;-71
2021/11/21 09:11:38;;;;;;;;;;;8.80;99.90;;;;;;8426927;28;19965;-72
2021/11/21 09:15:39;;;;;;;;;;;8.70;99.90;;;;;;8425255;28;19920;-72
2021/11/21 09:19:41;;;;;;;;;;;8.80;99.90;;;;;;8425252;28;19927;-72
2021/11/21 09:23:43;;;;;;;;;;;8.80;99.90;;;;;;8425640;28;19923;-72
2021/11/21 09:27:45;;;;;;;;;;;8.70;99.90;;;;;;8425107;28;19982;-72
2021/11/21 09:31:46;;;;;;;;;;;8.70;99.90;;;;;;8422441;28;19943;-71
2021/11/21 09:35:48;;;;;;;;;;;8.70;99.90;;;;;;8431753;28;19990;-71
2021/11/21 09:39:50;;;;;;;;;;;8.80;99.90;;;;;;8428358;28;20367;-72
2021/11/21 09:43:52;;;;;;;;;;;8.80;99.90;;;;;;8423719;28;20291;-71
2021/11/21 09:47:55;;;;;;;;;;;8.90;99.90;;;;;;8421699;28;20328;-72
2021/11/21 09:52:00;;;;;;;;;;;9.00;99.90;;;;;;8424410;28;19924;-72
2021/11/21 09:56:02;;;;;;;;;;;9.00;99.90;;;;;;8425869;28;19920;-72
2021/11/21 10:00:08;;;;;;;;;;;9.20;99.90;;;;;;8443880;27;19924;-74
2021/11/21 10:04:11;;;;;;;;;;;9.40;99.90;;;;;;8421756;28;19920;-74
2021/11/21 10:08:14;;;;;;;;;;;9.60;99.90;;;;;;8422852;28;19928;-74
2021/11/21 10:12:16;;;;;;;;;;;9.80;99.90;;;;;;8417385;28;19974;-73
2021/11/21 10:16:18;;;;;;;;;;;10.00;99.90;;;;;;8426026;28;19927;-71
2021/11/21 10:20:20;;;;;;;;;;;10.20;99.90;;;;;;8418256;28;19955;-72
2021/11/21 10:24:25;;;;;;;;;;;10.60;99.90;;;;;;8420848;27;19931;-72
2021/11/21 10:28:29;;;;;;;;;;;11.10;99.90;;;;;;8421989;28;19920;-72
2021/11/21 10:32:32;;;;;;;;;;;11.90;99.90;;;;;;8419777;28;19927;-72
2021/11/21 10:36:37;;;;;;;;;;;12.60;99.90;;;;;;8425027;28;19923;-72
2021/11/21 10:40:41;;;;;;;;;;;13.20;99.90;;;;;;8426497;28;19981;-72
2021/11/21 10:44:50;;;;;;;;;;;13.90;99.90;;;;;;8426685;28;19930;-72
2021/11/21 10:48:52;;;;;;;;;;;14.40;99.90;;;;;;8423881;28;19924;-72
2021/11/21 10:52:53;;;;;;;;;;;15.00;99.90;;;;;;8417772;28;19928;-72
2021/11/21 10:56:57;;;;;;;;;;;15.40;99.90;;;;;;8420741;28;19927;-73
2021/11/21 11:00:59;;;;;;;;;;;15.50;99.90;;;;;;8417858;28;19939;-72
2021/11/21 11:05:04;;;;;;;;;;;15.80;99.90;;;;;;8426171;28;19939;-72
2021/11/21 11:09:16;;;;;;;;;;;16.00;99.90;;;;;;8421763;28;20420;-72
2021/11/21 11:13:18;;;;;;;;;;;16.30;99.90;;;;;;8433909;28;20393;-72
2021/11/21 11:17:19;;;;;;;;;;;16.50;99.90;;;;;;8422371;28;19928;-72
2021/11/21 11:21:21;;;;;;;;;;;17.00;99.90;;;;;;8424467;28;19932;-72
2021/11/21 11:25:23;;;;;;;;;;;17.30;99.90;;;;;;8414489;28;19951;-74
2021/11/21 11:29:28;;;;;;;;;;;17.50;99.90;;;;;;8418160;28;19924;-74
2021/11/21 11:33:39;;;;;;;;;;;17.80;99.90;;;;;;8415845;28;19924;-74
2021/11/21 11:37:44;;;;;;;;;;;18.10;99.90;;;;;;8422930;28;19970;-74
2021/11/21 11:41:46;;;;;;;;;;;18.10;99.90;;;;;;8417935;28;20337;-72
2021/11/21 11:45:49;;;;;;;;;;;18.20;99.90;;;;;;8411457;28;20104;-73
2021/11/21 11:49:51;;;;;;;;;;;17.80;99.90;;;;;;8411561;28;19928;-72
2021/11/21 11:53:54;;;;;;;;;;;17.50;99.90;;;;;;8415132;28;20568;-74
2021/11/21 11:57:56;;;;;;;;;;;17.50;99.90;;;;;;8449710;27;20382;-74
2021/11/21 12:02:04;;;;;;;;;;;17.40;99.90;;;;;;8413322;28;19928;-74
2021/11/21 12:06:07;;;;;;;;;;;17.40;99.90;;;;;;8420013;28;19973;-74
2021/11/21 12:10:14;;;;;;;;;;;17.30;99.90;;;;;;8413291;28;19927;-74
2021/11/21 12:14:26;;;;;;;;;;;17.60;99.90;;;;;;8425058;28;19928;-75
2021/11/21 12:19:07;;;;;;;;;;;17.90;99.90;;;;;;8421434;28;20275;-74
2021/11/21 12:23:09;;;;;;;;;;;17.50;99.90;;;;;;8336252;28;19921;-74
2021/11/21 12:27:18;;;;;;;;;;;17.00;99.90;;;;;;8369762;28;19928;-74
2021/11/21 12:31:33;;;;;;;;;;;16.40;99.90;;;;;;8414612;28;19941;-74
2021/11/21 12:35:36;;;;;;;;;;;15.60;99.90;;;;;;8426849;28;19978;-74
2021/11/21 12:39:39;;;;;;;;;;;15.20;99.90;;;;;;8436590;28;19920;-74
2021/11/21 12:43:41;;;;;;;;;;;15.40;99.90;;;;;;8419554;28;19920;-74
2021/11/21 12:47:44;;;;;;;;;;;16.00;99.90;;;;;;8408960;28;19970;-75
2021/11/21 12:52:00;;;;;;;;;;;16.60;99.90;;;;;;8408340;28;19928;-74
2021/11/21 12:56:17;;;;;;;;;;;16.50;99.90;;;;;;8402218;28;19970;-74
2021/11/21 13:00:27;;;;;;;;;;;17.00;99.90;;;;;;8399443;28;19923;-74
2021/11/21 13:04:44;;;;;;;;;;;17.60;99.90;;;;;;8403374;28;19935;-75
2021/11/21 13:08:49;;;;;;;3.90;0.95;;;17.80;99.90;;;;;;8415456;27;19928;-75
2021/11/21 13:12:53;;;;;;;;;;;17.20;99.90;;;;;;8401032;28;20044;-74
2021/11/21 13:16:55;;;;;;;3.03;0.80;;;16.60;99.90;;;;;;8400952;28;20433;-74
2021/11/21 13:21:04;;;;;;;;;;;16.20;99.90;;;;;;8406187;28;20496;-74
2021/11/21 13:25:07;;;;;;;;;;;15.90;99.90;;;;;;8402475;28;20015;-74
2021/11/21 13:29:10;;;;;;;;;;;15.60;99.90;;;;;;8392451;28;19921;-74
2021/11/21 13:33:16;;;;;;;;;;;15.30;99.90;;;;;;8392775;28;19927;-74
2021/11/21 13:37:18;;;;;;;;;;;15.00;99.90;;;;;;8392165;28;19966;-75
2021/11/21 13:41:21;;;;;;;;;;;14.70;99.90;;;;;;8386413;28;20386;-74
2021/11/21 13:45:22;;;;;;;;;;;14.60;99.90;;;;;;8389326;28;19935;-74
2021/11/21 13:49:25;;;;;;;;;;;14.50;99.90;;;;;;8389620;28;19924;-75
2021/11/21 13:53:41;;;;;;;;;;;14.30;99.90;;;;;;8418559;27;19959;-74
2021/11/21 13:57:44;;;;;;;;;;;14.20;99.90;;;;;;8420399;27;19960;-74
2021/11/21 14:01:47;;;;;;;;;;;14.30;99.90;;;;;;8396137;28;19939;-74
2021/11/21 14:05:49;;;;;;;;;;;14.30;99.90;;;;;;8387905;28;19924;-75
2021/11/21 14:09:55;;;;;;;;;;;14.20;99.90;;;;;;8371175;28;19924;-74
2021/11/21 14:14:09;;;;;;;;;;;14.00;99.90;;;;;;8380715;28;19931;-74
2021/11/21 14:18:10;;;;;;;;;;;13.90;99.90;;;;;;8391522;28;20014;-74
2021/11/21 14:22:14;;;;;;;;;;;13.60;99.90;;;;;;8385908;28;19982;-74
2021/11/21 14:26:16;;;;;;;;;;;13.40;99.90;;;;;;8389176;28;19920;-74
2021/11/21 14:30:20;;;;;;;;;;;13.10;99.90;;;;;;8391963;28;20014;-74
2021/11/21 14:34:28;;;;;;;;;;;12.90;99.90;;;;;;8390343;28;19939;-74
2021/11/21 14:38:33;;;;;;;;;;;12.80;99.90;;;;;;8388890;28;19970;-74
2021/11/21 14:42:35;;;;;;;;;;;12.70;99.90;;;;;;8397788;28;22223;-74
2021/11/21 14:46:38;;;;;;;;;;;12.60;99.90;;;;;;8429434;27;20391;-75
2021/11/21 14:50:40;;;;;;;;;;;12.50;99.90;;;;;;8398249;28;20018;-74
2021/11/21 14:54:43;;;;;;;;;;;12.90;99.90;;;;;;8397391;28;20970;-74
2021/11/21 14:58:48;;;;;;;;;;;13.50;99.90;;;;;;8413056;28;20031;-75
2021/11/21 15:02:50;;;;;;;;;;;14.10;99.90;;;;;;8393909;28;19925;-75
2021/11/21 15:06:52;;;;;;;;;;;14.40;99.90;;;;;;8391994;28;19990;-75
2021/11/21 15:10:54;;;;;;;;;;;14.30;99.90;;;;;;8390147;28;20183;-75
2021/11/21 15:14:56;;;;;;;;;;;14.00;99.90;;;;;;8391036;28;19928;-74
2021/11/21 15:18:58;;;;;;;;;;;13.70;99.90;;;;;;8388349;28;19919;-74
2021/11/21 15:23:00;;;;;;;;;;;13.30;99.90;;;;;;8384515;28;20051;-75
2021/11/21 15:27:02;;;;;;;;;;;13.00;99.90;;;;;;8386595;28;19931;-75
2021/11/21 15:31:04;;;;;;;;;;;12.60;99.90;;;;;;8383786;28;20302;-74
2021/11/21 15:35:06;;;;;;;;;;;12.40;99.90;;;;;;8386488;28;20399;-74
2021/11/21 15:39:08;;;;;;;;;;;12.20;99.90;;;;;;8391590;28;19928;-74
2021/11/21 15:43:10;;;;;;;;;;;12.00;99.90;;;;;;8392284;28;19925;-74
2021/11/21 15:47:12;;;;;;;;;;;11.90;99.90;;;;;;8419996;27;19951;-74
2021/11/21 15:51:13;;;;;;;;;;;11.80;99.90;;;;;;8389826;28;19935;-75
2021/11/21 15:55:15;;;;;;;;;;;11.70;99.90;;;;;;8404531;28;19928;-74
2021/11/21 15:59:17;;;;;;;;;;;11.60;99.90;;;;;;8397194;28;19990;-74
2021/11/21 16:03:19;;;;;;;;;;;11.40;99.90;;;;;;8401156;28;20010;-74
2021/11/21 16:07:21;;;;;;;;;;;11.30;99.90;;;;;;8394660;28;19939;-74
2021/11/21 16:11:23;;;;;;;;;;;11.20;99.90;;;;;;8399330;28;19920;-74
2021/11/21 16:15:26;;;;;;;;;;;11.20;99.90;;;;;;8396351;28;19993;-74
2021/11/21 16:19:28;;;;;;;;;;;11.10;99.90;;;;;;8399784;28;23598;-74
2021/11/21 16:23:30;;;;;;;;;;;11.00;99.90;;;;;;8394874;28;20251;-74
2021/11/21 16:27:32;;;;;;;;;;;10.90;99.90;;;;;;8412158;28;19931;-74
2021/11/21 16:31:34;;;;;;;;;;;10.80;99.90;;;;;;8396154;28;19929;-74
2021/11/21 16:35:36;;;;;;;;;;;10.70;99.90;;;;;;8429522;27;19935;-74
2021/11/21 16:39:39;;;;;;;;;;;10.60;99.90;;;;;;8394371;28;19939;-74
2021/11/21 16:43:42;;;;;;;;;;;10.50;99.90;;;;;;8395393;28;20429;-74
2021/11/21 16:47:44;;;;;;;;;;;10.40;99.90;;;;;;8423574;27;19925;-74
2021/11/21 16:51:46;;;;;;;;;;;10.30;99.90;;;;;;8394877;28;19936;-74
2021/11/21 16:55:48;;;;;;;;;;;10.20;99.90;;;;;;8392808;28;19927;-74
2021/11/21 16:59:50;;;;;;;;;;;10.10;99.90;;;;;;8394604;28;19924;-74
2021/11/21 17:03:52;;;;;;;;;;;10.00;99.90;;;;;;8397052;28;19978;-74
2021/11/21 17:07:53;;;;;;;;;;;9.90;99.90;;;;;;8395218;28;20684;-74
2021/11/21 17:11:58;;;;;;;;;;;9.80;99.90;;;;;;8394040;28;20296;-74
2021/11/21 17:15:59;;;;;;;;;;;9.70;99.90;;;;;;8399382;28;19926;-74
2021/11/21 17:20:02;;;;;;;;;;;9.60;99.90;;;;;;8397124;28;19974;-74
2021/11/21 17:24:05;;;;;;;;;;;9.50;99.90;;;;;;8395452;28;19920;-74
2021/11/21 17:28:07;;;;;;;;;;;9.40;99.90;;;;;;8396197;28;19921;-74
2021/11/21 17:32:10;;;;;;;;;;;9.30;99.90;;;;;;8397954;28;19936;-74
2021/11/21 17:36:12;;;;;;;;;;;9.10;99.90;;;;;;8401084;28;20368;-74
2021/11/21 17:40:16;;;;;;;;;;;9.00;99.90;;;;;;8398299;28;20325;-74
2021/11/21 17:44:17;;;;;;;;;;;8.90;99.90;;;;;;8395773;28;19934;-74
2021/11/21 17:48:24;;;;;;;;;;;8.70;99.90;;;;;;8393199;28;19935;-74
2021/11/21 17:52:26;;;;;;;;;;;8.60;99.90;;;;;;8394196;28;19978;-75
2021/11/21 17:56:27;;;;;;;;;;;8.40;99.90;;;;;;8395075;28;19962;-74
2021/11/21 18:00:29;;;;;;;;;;;8.40;99.90;;;;;;8394610;28;20320;-74
2021/11/21 18:04:31;;;;;;;;;;;8.30;99.90;;;;;;8408616;28;20015;-74
2021/11/21 18:08:34;;;;;;;;;;;8.20;99.90;;;;;;8396489;28;20022;-74
2021/11/21 18:12:36;;;;;;;;;;;8.10;99.90;;;;;;8393066;28;19928;-73
2021/11/21 18:16:38;;;;;;;;;;;8.00;99.90;;;;;;8396127;28;19924;-74
2021/11/21 18:20:40;;;;;;;;;;;7.90;99.90;;;;;;8404284;28;20003;-74
2021/11/21 18:24:42;;;;;;;;;;;7.90;99.90;;;;;;8392934;28;21468;-73
2021/11/21 18:28:44;;;;;;;;;;;7.80;99.90;;;;;;8392563;28;20269;-74
2021/11/21 18:32:46;;;;;;;;;;;7.70;99.90;;;;;;8401294;28;19920;-74
2021/11/21 18:36:47;;;;;;;;;;;7.70;99.90;;;;;;8391173;28;19939;-74
2021/11/21 18:40:49;;;;;;;;;;;7.60;99.90;;;;;;8391665;28;19925;-74
2021/11/21 18:44:52;;;;;;;;;;;7.50;99.90;;;;;;8391129;28;19970;-74
2021/11/21 18:48:54;;;;;;;;;;;7.40;99.90;;;;;;8418532;27;19953;-74
2021/11/21 18:52:56;;;;;;;;;;;7.30;99.90;;;;;;8391573;28;19985;-74
2021/11/21 18:56:58;;;;;;;;;;;7.20;99.90;;;;;;8399185;28;20306;-74
2021/11/21 19:01:01;;;;;;;;;;;7.10;99.90;;;;;;8389143;28;19920;-74
2021/11/21 19:05:03;;;;;;;;;;;7.00;99.90;;;;;;8393225;28;19924;-74
2021/11/21 19:09:06;;;;;;;;;;;7.00;99.90;;;;;;8401245;28;19940;-74
2021/11/21 19:13:07;;;;;;;;;;;6.90;99.90;;;;;;8401910;28;19982;-73
2021/11/21 19:17:10;;;;;;;;;;;6.80;99.90;;;;;;8406830;28;19928;-74
2021/11/21 19:21:12;;;;;;;;;;;6.70;99.90;;;;;;8388194;28;19935;-75
2021/11/21 19:25:14;;;;;;;;;;;6.60;99.90;;;;;;8404536;28;19927;-74
2021/11/21 19:29:16;;;;;;;;;;;6.60;99.90;;;;;;8426026;27;20302;-74
2021/11/21 19:33:18;;;;;;;;;;;6.50;99.90;;;;;;8407310;28;20365;-74
2021/11/21 19:37:20;;;;;;;;;;;6.50;99.90;;;;;;8398140;28;20295;-74
2021/11/21 19:41:22;;;;;;;;;;;6.40;99.90;;;;;;8409872;28;20363;-74
2021/11/21 19:45:24;;;;;;;;;;;6.40;99.90;;;;;;8398175;28;20281;-74
2021/11/21 19:49:26;;;;;;;;;;;6.40;99.90;;;;;;8394907;28;19928;-74
2021/11/21 19:53:28;;;;;;;;;;;6.30;99.90;;;;;;8394362;28;19925;-74
2021/11/21 19:57:30;;;;;;;;;;;6.30;99.90;;;;;;8394200;28;19928;-73
2021/11/21 20:01:32;;;;;;;;;;;6.20;99.90;;;;;;8393456;28;19970;-73
2021/11/21 20:05:33;;;;;;;;;;;6.20;99.90;;;;;;8405294;28;19924;-74
2021/11/21 20:09:35;;;;;;;;;;;6.10;99.90;;;;;;8406018;28;20600;-74
2021/11/21 20:13:38;;;;;;;;;;;6.10;99.90;;;;;;8392899;28;19920;-74
2021/11/21 20:17:40;;;;;;;;;;;6.10;99.90;;;;;;8392832;28;19994;-74
2021/11/21 20:21:44;;;;;;;;;;;6.10;99.90;;;;;;8392600;28;19974;-74
2021/11/21 20:25:46;;;;;;;;;;;6.20;99.90;;;;;;8393126;28;20022;-74
2021/11/21 20:29:48;;;;;;;;;;;6.20;99.90;;;;;;8389033;28;19974;-73
2021/11/21 20:38:27;;;;;;;6.00;3.20;;;6.30;99.90;;;;;;8384051;28;19924;-74
2021/11/21 20:42:29;;;;;;;6.45;2.75;;;6.30;99.90;;;;;;8393666;28;20337;-74
2021/11/21 20:46:31;;;;;;;5.68;2.67;;;6.30;99.90;;;;;;8396267;28;20056;-74
2021/11/21 20:50:36;;;;;;;8.80;2.80;;;6.30;99.90;;;;;;8392885;28;20048;-74
2021/11/21 20:54:38;;;;;;;5.60;2.30;;;6.30;99.90;;;;;;8393696;28;19999;-74
2021/11/21 20:58:40;;;;;;;5.20;2.70;;;6.20;99.90;;;;;;8391674;28;20081;-74
2021/11/21 21:02:41;;;;;;;6.38;2.70;;;6.20;99.90;;;;;;8393724;28;19929;-74
2021/11/21 21:06:43;;;;;;;5.25;2.50;;;6.20;99.90;;;;;;8409164;28;20055;-74
2021/11/21 21:10:45;;;;;;;6.18;2.50;;;6.20;99.90;;;;;;8388468;28;20045;-74
2021/11/21 21:14:48;;;;;;;5.03;2.70;;;6.10;99.90;;;;;;8393065;28;20044;-74
2021/11/21 21:18:50;;;;;;;7.25;3.03;;;6.10;99.90;;;;;;8393136;28;20060;-72
2021/11/21 21:22:53;;;;;;;5.50;2.10;;;6.10;99.90;;;;;;8391973;28;20044;-72
2021/11/21 21:26:56;;;;;;;6.10;2.20;;;6.00;99.90;;;;;;8408874;28;19936;-72
2021/11/21 21:30:58;;;;;;;6.05;2.05;;;6.10;99.90;;;;;;8390713;28;20044;-72
2021/11/21 21:34:59;;;;;;;5.10;2.00;;;6.00;99.90;;;;;;8394957;28;20356;-71
2021/11/21 21:39:02;;;;;;;5.27;2.30;;;5.90;99.90;;;;;;8389909;28;20045;-72
2021/11/21 21:43:04;;;;;;;6.07;1.77;;;5.90;99.90;;;;;;8392733;28;19929;-73
2021/11/21 21:47:06;;;;;;;4.00;1.85;;;5.90;99.90;;;;;;8404177;28;20044;-74
2021/11/21 21:51:27;;;;;;;3.70;1.77;;;5.80;99.90;;;;;;8390392;28;20376;-75
2021/11/21 21:55:29;;;;;;;5.60;1.95;;;5.80;99.90;;;;;;8401149;28;20491;-74
2021/11/21 21:59:31;;;;;;;4.78;1.60;;;5.90;99.90;;;;;;8388420;28;20052;-74
2021/11/21 22:03:33;;;;;;;5.53;1.70;;;5.80;99.90;;;;;;8413178;28;20098;-74
2021/11/21 22:07:44;;;;;;;3.90;1.63;;;5.80;99.90;;;;;;8421756;28;20059;-73
2021/11/21 22:11:48;;;;;;;3.40;1.50;;;5.80;99.90;;;;;;8423593;28;20761;-74
2021/11/21 22:15:50;;;;;;;2.90;1.30;;;5.70;99.90;;;;;;8421731;28;20044;-73
2021/11/21 22:19:51;;;;;;;;;;;5.70;99.90;;;;;;8424859;28;20351;-74
2021/11/21 22:23:53;;;;;;;;;;;5.70;99.90;;;;;;8452091;27;20363;-74
2021/11/21 22:27:55;;;;;;;3.72;1.60;;;5.70;99.90;;;;;;8419291;28;19920;-74
2021/11/21 22:31:56;;;;;;;2.38;1.15;;;5.70;99.90;;;;;;8416800;28;20052;-74
2021/11/21 22:35:58;;;;;;;3.72;1.08;;;5.60;99.90;;;;;;8413081;28;20040;-74
2021/11/21 22:40:00;;;;;;;3.28;1.20;;;5.60;99.90;;;;;;8413174;28;20071;-74
2021/11/21 22:44:02;;;;;;;2.25;1.08;;;5.60;99.90;;;;;;8419462;28;20040;-74
2021/11/21 22:48:04;;;;;;;2.80;1.10;;;5.60;99.90;;;;;;8423614;28;20040;-74
2021/11/21 22:52:06;;;;;;;;;;;5.50;99.90;;;;;;8416918;28;20044;-74
2021/11/21 22:56:08;;;;;;;;;;;5.40;99.90;;;;;;8417662;28;19927;-74
2021/11/21 23:00:15;;;;;;;2.70;0.98;;;5.40;99.90;;;;;;8410141;28;19960;-74
2021/11/21 23:04:17;;;;;;;2.20;0.90;;;5.40;99.90;;;;;;8416658;28;20120;-73
2021/11/21 23:08:20;;;;;;;;;;;5.40;99.90;;;;;;8441152;28;19923;-73
2021/11/21 23:12:21;;;;;;;;;;;5.30;99.90;;;;;;8412096;28;19973;-74
2021/11/21 23:16:24;;;;;;;;;;;5.30;99.90;;;;;;8412282;28;19927;-73
2021/11/21 23:20:45;;;;;;;;;;;5.30;99.90;;;;;;8438831;28;19920;-73
2021/11/21 23:24:47;;;;;;;3.15;0.80;;;5.30;99.90;;;;;;8418532;28;19927;-73
2021/11/21 23:28:48;;;;;;;1.15;0.73;;;5.30;99.90;;;;;;8411670;28;20048;-73
2021/11/21 23:32:52;;;;;;;3.30;1.00;;;5.30;99.90;;;;;;8401962;28;20052;-72